EPKK/KRK METAR and TAF weather

Enter ICAO airport designator
Station Type Date Time Source
EPKK METAR 2020/01/28 05:00 UTC NOAA

EPKK 280500Z 06007KT 1500 BR NSC M04/M04 Q1005


Station Type Date Time Source
EPKK Decoded METAR 2020/01/28 05:00 UTC NOAA

Krakow, Poland (EPKK) 50-05N 019-48E 237M
Jan 28, 2020 - 12:00 AM EST / 2020.01.28 0500 UTC
Wind: from the ENE (060 degrees) at 8 MPH (7 KT):0
Visibility: less than 1 mile:0
Weather: mist
Temperature: 24 F (-4 C)
Windchill: 15 F (-9 C):1
Dew Point: 24 F (-4 C)
Relative Humidity: 100%
Pressure (altimeter): 29.68 in. Hg (1005 hPa)
ob: EPKK 280500Z 06007KT 1500 BR NSC M04/M04 Q1005
cycle: 5

Station Type Date Time Source
EPKK TAF 2020/01/28 03:33 UTC NOAA

TAF TAF EPKK 280230Z 2803/2903 06005KT 1500 BR NSC
TEMPO 2803/2806 1200 BR
BECMG 2806/2809 7000
BECMG 2817/2820 23010KT

Example: see airport list